TimeCDT,TemperatureF,Dew PointF,Humidity,Sea Level PressureIn,VisibilityMPH,Wind Direction,Wind SpeedMPH,Gust SpeedMPH,PrecipitationIn,Events,Conditions,WindDirDegrees,DateUTC
12:15 AM,64.4,62.6,94,30.01,3.0,SSE,11.5,-,N/A,,Overcast,160,2013-09-18 05:15:00
12:35 AM,64.4,62.6,94,30.01,3.0,South,8.1,-,N/A,,Overcast,170,2013-09-18 05:35:00
12:55 AM,64.4,62.6,94,30.01,3.0,South,9.2,-,N/A,,Overcast,170,2013-09-18 05:55:00
1:15 AM,64.4,62.6,94,30.01,3.0,South,9.2,-,N/A,,Overcast,170,2013-09-18 06:15:00
1:35 AM,64.4,62.6,94,30.00,3.0,SSE,10.4,-,N/A,,Overcast,160,2013-09-18 06:35:00
1:55 AM,64.4,62.6,94,29.99,3.0,SSE,10.4,-,N/A,,Overcast,160,2013-09-18 06:55:00
2:15 AM,64.4,62.6,94,29.98,3.0,SSE,9.2,-,N/A,,Overcast,150,2013-09-18 07:15:00
2:35 AM,64.4,62.6,94,29.98,3.0,SSE,8.1,-,N/A,,Overcast,160,2013-09-18 07:35:00
2:55 AM,64.4,62.6,94,29.97,3.0,SSE,9.2,-,N/A,,Overcast,150,2013-09-18 07:55:00
3:15 AM,64.4,62.6,94,29.96,3.0,SSE,9.2,-,N/A,,Overcast,160,2013-09-18 08:15:00
3:35 AM,64.4,62.6,94,29.95,3.0,SSE,10.4,-,N/A,,Overcast,160,2013-09-18 08:35:00
3:55 AM,64.4,64.4,100,29.95,3.0,SSE,12.7,-,N/A,,Overcast,160,2013-09-18 08:55:00
4:15 AM,64.4,64.4,100,29.95,3.0,SSE,10.4,-,N/A,,Overcast,160,2013-09-18 09:15:00
4:35 AM,64.4,64.4,100,29.94,3.0,SSE,9.2,-,N/A,,Overcast,160,2013-09-18 09:35:00
4:55 AM,66.2,64.4,94,29.93,3.0,SSE,10.4,-,N/A,,Overcast,160,2013-09-18 09:55:00
5:15 AM,64.4,64.4,100,29.93,3.0,SSE,9.2,-,N/A,,Overcast,160,2013-09-18 10:15:00
5:35 AM,64.4,64.4,100,29.92,2.5,SSE,9.2,-,N/A,,Overcast,160,2013-09-18 10:35:00
5:55 AM,66.2,64.4,94,29.92,2.5,SSE,11.5,-,N/A,,Overcast,160,2013-09-18 10:55:00
6:15 AM,66.2,64.4,94,29.92,3.0,SSE,8.1,-,N/A,,Overcast,160,2013-09-18 11:15:00
6:35 AM,66.2,64.4,94,29.92,3.0,SSE,8.1,-,N/A,,Overcast,160,2013-09-18 11:35:00
6:55 AM,66.2,64.4,94,29.92,3.0,SSE,9.2,-,N/A,,Overcast,160,2013-09-18 11:55:00
7:15 AM,66.2,64.4,94,29.93,2.0,SSE,6.9,13.8,N/A,,Overcast,160,2013-09-18 12:15:00
7:35 AM,66.2,64.4,94,29.93,2.5,SSE,6.9,-,N/A,,Overcast,160,2013-09-18 12:35:00
7:55 AM,66.2,66.2,100,29.92,2.5,South,11.5,-,N/A,,Overcast,170,2013-09-18 12:55:00
8:15 AM,66.2,66.2,100,29.92,2.5,South,9.2,-,N/A,,Overcast,190,2013-09-18 13:15:00
8:35 AM,68.0,66.2,94,29.92,3.0,South,10.4,-,N/A,,Overcast,190,2013-09-18 13:35:00
8:55 AM,68.0,66.2,94,29.92,4.0,South,9.2,15.0,N/A,,Overcast,190,2013-09-18 13:55:00
9:15 AM,69.8,66.2,88,29.91,5.0,South,11.5,19.6,N/A,,Overcast,190,2013-09-18 14:15:00
9:35 AM,69.8,66.2,88,29.91,5.0,South,13.8,-,N/A,,Mostly Cloudy,190,2013-09-18 14:35:00
9:55 AM,71.6,66.2,83,29.91,7.0,South,12.7,18.4,N/A,,Mostly Cloudy,190,2013-09-18 14:55:00
10:15 AM,73.4,68.0,83,29.91,8.0,South,11.5,18.4,N/A,,Mostly Cloudy,180,2013-09-18 15:15:00
10:35 AM,75.2,68.0,78,29.90,9.0,South,11.5,18.4,N/A,,Scattered Clouds,190,2013-09-18 15:35:00
10:55 AM,77.0,68.0,74,29.90,9.0,SSW,13.8,20.7,N/A,,Partly Cloudy,200,2013-09-18 15:55:00
11:15 AM,78.8,68.0,69,29.89,9.0,South,15.0,-,N/A,,Partly Cloudy,180,2013-09-18 16:15:00
11:35 AM,78.8,68.0,69,29.89,9.0,South,11.5,18.4,N/A,,Partly Cloudy,180,2013-09-18 16:35:00
11:55 AM,78.8,68.0,69,29.88,9.0,South,16.1,-,N/A,,Clear,180,2013-09-18 16:55:00
12:15 PM,82.4,68.0,62,29.87,10.0,South,16.1,24.2,N/A,,Clear,190,2013-09-18 17:15:00
12:35 PM,84.2,68.0,58,29.86,10.0,South,15.0,-,N/A,,Clear,180,2013-09-18 17:35:00
12:55 PM,84.2,68.0,58,29.86,10.0,South,16.1,-,N/A,,Clear,170,2013-09-18 17:55:00
1:15 PM,86.0,68.0,55,29.85,9.0,SSW,16.1,23.0,N/A,,Clear,200,2013-09-18 18:15:00
1:35 PM,87.8,68.0,52,29.84,10.0,South,15.0,23.0,N/A,,Clear,180,2013-09-18 18:35:00
1:55 PM,87.8,68.0,52,29.83,9.0,SSW,15.0,23.0,N/A,,Clear,210,2013-09-18 18:55:00
2:15 PM,87.8,68.0,52,29.82,9.0,South,17.3,24.2,N/A,,Clear,190,2013-09-18 19:15:00
2:35 PM,89.6,68.0,49,29.81,10.0,SSW,19.6,26.5,N/A,,Clear,200,2013-09-18 19:35:00
2:55 PM,89.6,66.2,46,29.81,10.0,SSW,16.1,23.0,N/A,,Clear,210,2013-09-18 19:55:00
3:15 PM,89.6,66.2,46,29.80,10.0,South,17.3,24.2,N/A,,Clear,190,2013-09-18 20:15:00
3:35 PM,89.6,68.0,49,29.79,10.0,South,16.1,27.6,N/A,,Clear,180,2013-09-18 20:35:00
3:55 PM,89.6,68.0,49,29.80,10.0,South,16.1,26.5,N/A,,Clear,190,2013-09-18 20:55:00
4:15 PM,89.6,68.0,49,29.79,10.0,South,16.1,24.2,N/A,,Clear,190,2013-09-18 21:15:00
4:35 PM,87.8,68.0,52,29.79,10.0,South,13.8,19.6,N/A,,Clear,180,2013-09-18 21:35:00
4:55 PM,87.8,68.0,52,29.78,10.0,South,15.0,25.3,N/A,,Clear,190,2013-09-18 21:55:00
5:15 PM,87.8,68.0,52,29.78,10.0,South,18.4,25.3,N/A,,Clear,180,2013-09-18 22:15:00
5:35 PM,86.0,68.0,55,29.78,10.0,South,15.0,24.2,N/A,,Clear,190,2013-09-18 22:35:00
5:55 PM,86.0,68.0,55,29.78,10.0,South,16.1,21.9,N/A,,Clear,190,2013-09-18 22:55:00
6:15 PM,86.0,68.0,55,29.78,10.0,South,15.0,-,N/A,,Clear,180,2013-09-18 23:15:00
6:35 PM,84.2,68.0,58,29.78,10.0,South,12.7,-,N/A,,Clear,190,2013-09-18 23:35:00
6:55 PM,82.4,68.0,62,29.79,8.0,South,8.1,16.1,N/A,,Clear,190,2013-09-18 23:55:00
7:15 PM,82.4,68.0,62,29.79,10.0,South,10.4,-,N/A,,Clear,190,2013-09-19 00:15:00
7:35 PM,82.4,66.2,58,29.80,10.0,South,9.2,-,N/A,,Clear,190,2013-09-19 00:35:00
7:55 PM,80.6,66.2,61,29.81,10.0,South,8.1,-,N/A,,Clear,190,2013-09-19 00:55:00
8:15 PM,78.8,66.2,65,29.81,10.0,South,8.1,13.8,N/A,,Partly Cloudy,190,2013-09-19 01:15:00
8:35 PM,78.8,68.0,69,29.82,10.0,South,8.1,-,N/A,,Scattered Clouds,170,2013-09-19 01:35:00
8:55 PM,77.0,68.0,74,29.82,10.0,South,6.9,-,N/A,,Mostly Cloudy,170,2013-09-19 01:55:00
9:15 PM,77.0,68.0,74,29.82,10.0,South,10.4,-,N/A,,Scattered Clouds,180,2013-09-19 02:15:00
9:35 PM,78.8,68.0,69,29.82,10.0,South,10.4,-,N/A,,Scattered Clouds,170,2013-09-19 02:35:00
9:55 PM,77.0,68.0,74,29.82,10.0,South,9.2,-,N/A,,Partly Cloudy,170,2013-09-19 02:55:00
10:15 PM,78.8,68.0,69,29.82,10.0,South,10.4,-,N/A,,Clear,180,2013-09-19 03:15:00
10:35 PM,78.8,68.0,69,29.82,10.0,South,12.7,-,N/A,,Clear,180,2013-09-19 03:35:00
10:55 PM,77.0,68.0,74,29.82,10.0,South,15.0,20.7,N/A,,Clear,190,2013-09-19 03:55:00
11:15 PM,77.0,68.0,74,29.82,10.0,South,13.8,19.6,N/A,,Clear,190,2013-09-19 04:15:00
11:35 PM,77.0,68.0,74,29.82,10.0,South,11.5,18.4,N/A,,Mostly Cloudy,180,2013-09-19 04:35:00
11:55 PM,77.0,68.0,74,29.82,10.0,South,11.5,17.3,N/A,,Overcast,180,2013-09-19 04:55:00